Time;durP1;ratioP1;P1;durP2;ratioP2;P2;SDS_P1;SDS_P2;PMS_P1;PMS_P2;Temp;Humidity;BMP_temperature;BMP_pressure;BME280_temperature;BME280_humidity;BME280_pressure;Samples;Min_cycle;Max_cycle;Signal;HPM_P1;HPM_P2
2023/05/10 00:00:26;;;;;;;;;;;20.10;91.90;;;;;;5095419;28;20469;-51
2023/05/10 00:02:52;;;;;;;;;;;20.10;91.90;;;;;;5095510;28;19954;-50
2023/05/10 00:05:18;;;;;;;;;;;20.10;92.10;;;;;;5094710;28;19908;-51
2023/05/10 00:07:44;;;;;;;;;;;20.10;91.90;;;;;;5095718;28;19951;-50
2023/05/10 00:10:10;;;;;;;;;;;20.10;91.90;;;;;;5095021;28;20359;-52
2023/05/10 00:12:35;;;;;;;;;;;20.10;91.90;;;;;;5095152;28;19915;-52
2023/05/10 00:15:01;;;;;;;;;;;20.10;91.90;;;;;;5095589;28;20412;-48
2023/05/10 00:17:26;;;;;;;;;;;20.10;91.90;;;;;;5094926;28;19986;-46
2023/05/10 00:19:52;;;;;;;;;;;20.10;91.90;;;;;;5077077;28;19957;-46
2023/05/10 00:22:17;;;;;;;;;;;20.20;91.90;;;;;;5076986;28;19999;-49
2023/05/10 00:24:43;;;;;;;;;;;20.10;91.90;;;;;;5095180;28;19909;-48
2023/05/10 00:27:08;;;;;;;;;;;20.10;91.90;;;;;;5094690;28;19912;-48
2023/05/10 00:29:34;;;;;;;;;;;20.10;91.90;;;;;;5095325;28;19927;-48
2023/05/10 00:31:59;;;;;;;;;;;20.10;91.90;;;;;;5095063;28;20339;-51
2023/05/10 00:34:25;;;;;;;;;;;20.10;91.90;;;;;;5094982;28;20378;-49
2023/05/10 00:36:50;;;;;;;;;;;20.10;91.90;;;;;;5094971;28;19941;-51
2023/05/10 00:39:16;;;;;;;;;;;20.10;91.90;;;;;;5076712;28;19916;-49
2023/05/10 00:41:41;;;;;;;;;;;20.10;91.90;;;;;;5094589;28;20282;-47
2023/05/10 00:44:07;;;;;;;;;;;20.10;91.90;;;;;;5094944;28;19924;-47
2023/05/10 00:46:32;;;;;;;;;;;20.10;91.90;;;;;;5094658;28;19959;-47
2023/05/10 00:48:58;;;;;;;;;;;20.10;91.90;;;;;;5094718;28;20303;-47
2023/05/10 00:51:24;;;;;;;;;;;20.10;91.90;;;;;;5094685;28;20003;-48
2023/05/10 00:53:50;;;;;;;;;;;20.10;91.90;;;;;;5094313;28;19961;-49
2023/05/10 00:56:15;;;;;;;;;;;20.10;91.90;;;;;;5094549;28;19958;-48
2023/05/10 00:58:41;;;;;;;;;;;20.20;91.90;;;;;;5094503;28;19941;-50
2023/05/10 01:01:07;;;;;;;;;;;20.10;91.90;;;;;;5094246;28;19995;-51
2023/05/10 01:03:33;;;;;;;;;;;20.10;91.90;;;;;;5094485;28;19947;-50
2023/05/10 01:05:59;;;;;;;;;;;20.20;91.90;;;;;;5094045;28;19923;-48
2023/05/10 01:08:25;;;;;;;;;;;20.20;91.90;;;;;;5094347;28;19913;-48
2023/05/10 01:10:52;;;;;;;;;;;20.20;92.00;;;;;;5094334;28;19916;-50
2023/05/10 01:13:24;;;;;;;;;;;20.10;91.90;;;;;;5076283;28;20274;-48
2023/05/10 01:15:50;;;;;;;;;;;20.10;91.90;;;;;;5093214;28;19909;-48
2023/05/10 01:18:18;;;;;;;;;;;20.10;91.90;;;;;;5093836;28;19908;-51
2023/05/10 01:20:47;;;;;;;;;;;20.20;92.00;;;;;;5093944;28;19912;-46
2023/05/10 01:23:15;;;;;;;;;;;20.10;91.90;;;;;;5094435;28;20010;-50
2023/05/10 01:25:55;;;;;;;;;;;20.10;91.90;;;;;;5093774;28;19912;-48
2023/05/10 01:28:34;;;;;;;;;;;20.10;91.90;;;;;;5093986;28;19919;-50
2023/05/10 01:31:07;;;;;;;;;;;20.10;91.90;;;;;;5094473;28;19990;-47
2023/05/10 01:33:46;;;;;;;;;;;20.10;91.90;;;;;;5093835;28;19915;-48
2023/05/10 01:36:19;;;;;;;;;;;20.10;91.90;;;;;;5093820;28;19912;-47
2023/05/10 01:38:50;;;;;;;;;;;20.10;92.20;;;;;;5094132;28;19916;-47
2023/05/10 01:41:48;;;;;;;;;;;20.10;92.00;;;;;;5093799;28;19908;-51
2023/05/10 01:44:20;;;;;;;;;;;20.10;91.90;;;;;;5059556;28;19928;-48
2023/05/10 01:46:48;;;;;;;;;;;20.10;92.00;;;;;;5093942;28;20002;-51
2023/05/10 01:49:23;;;;;;;;;;;20.10;92.00;;;;;;5093845;28;19924;-50
2023/05/10 01:51:51;;;;;;;;;;;20.10;92.00;;;;;;5094009;28;19962;-48
2023/05/10 01:54:19;;;;;;;;;;;20.10;92.00;;;;;;5093841;28;19908;-51
2023/05/10 01:56:45;;;;;;;;;;;20.10;92.00;;;;;;5093976;28;19914;-49
2023/05/10 01:59:12;;;;;;;;;;;20.10;92.00;;;;;;5093795;28;19912;-47
2023/05/10 02:01:38;;;;;;;;;;;20.10;92.00;;;;;;5093536;28;19908;-50
2023/05/10 02:04:05;;;;;;;;;;;20.10;92.00;;;;;;5093551;28;19909;-47
2023/05/10 02:06:31;;;;;;;;;;;20.10;92.00;;;;;;5093763;28;19919;-48
2023/05/10 02:08:57;;;;;;;;;;;20.10;92.00;;;;;;5093755;28;20469;-47
2023/05/10 02:11:24;;;;;;;;;;;20.10;92.00;;;;;;5093358;28;19912;-47
2023/05/10 02:13:51;;;;;;;;;;;20.10;92.00;;;;;;5093717;28;19983;-50
2023/05/10 02:16:18;;;;;;;;;;;20.10;92.00;;;;;;5093651;28;19908;-48
2023/05/10 02:18:43;;;;;;;;;;;20.10;92.10;;;;;;5093640;28;19915;-50
2023/05/10 02:21:10;;;;;;;;;;;20.10;92.10;;;;;;5093339;28;20007;-49
2023/05/10 02:23:36;;;;;;;;;;;20.10;92.10;;;;;;5092029;28;20367;-49
2023/05/10 02:26:02;;;;;;;;;;;20.10;92.10;;;;;;5105975;28;19922;-52
2023/05/10 02:28:27;;;;;;;;;;;20.10;92.10;;;;;;5095293;28;19918;-49
2023/05/10 02:30:53;;;;;;;;;;;20.10;92.10;;;;;;5104056;28;19930;-50
2023/05/10 02:33:19;;;;;;;;;;;20.10;92.10;;;;;;5114741;28;19914;-48
2023/05/10 02:35:46;;;;;;;;;;;20.10;92.20;;;;;;5107765;28;19943;-52
2023/05/10 02:38:13;;;;;;;;;;;20.10;92.10;;;;;;5114557;28;19918;-51
2023/05/10 02:40:40;;;;;;;;;;;20.10;92.20;;;;;;5096792;28;19912;-51
2023/05/10 02:43:06;;;;;;;;;;;20.10;92.10;;;;;;5097009;28;19927;-47
2023/05/10 02:45:32;;;;;;;;;;;20.10;92.10;;;;;;5096829;28;19912;-49
2023/05/10 02:47:58;;;;;;;;;;;20.10;92.20;;;;;;5098066;28;20270;-49
2023/05/10 02:50:26;;;;;;;;;;;20.10;92.10;;;;;;5096633;28;19927;-47
2023/05/10 02:52:54;;;;;;;;;;;20.10;92.20;;;;;;5096830;28;20006;-50
2023/05/10 02:55:21;;;;;;;;;;;20.10;92.10;;;;;;5097126;28;19909;-46
2023/05/10 02:57:50;;;;;;;;;;;20.10;92.10;;;;;;5097151;28;19953;-49
2023/05/10 03:00:16;;;;;;;;;;;20.10;92.10;;;;;;5096458;28;20266;-50
2023/05/10 03:02:41;;;;;;;;;;;20.10;92.10;;;;;;5096161;28;19916;-47
2023/05/10 03:05:07;;;;;;;;;;;20.10;92.10;;;;;;5096631;28;19915;-49
2023/05/10 03:07:33;;;;;;;;;;;20.10;92.10;;;;;;5096491;28;20432;-49
2023/05/10 03:09:58;;;;;;;;;;;20.10;92.10;;;;;;5096533;28;19918;-50
2023/05/10 03:12:47;;;;;;;;;;;20.10;92.10;;;;;;5078735;28;19937;-47
2023/05/10 03:15:19;;;;;;;;;;;20.10;92.10;;;;;;5065573;28;19916;-49
2023/05/10 03:17:52;;;;;;;;;;;20.10;92.20;;;;;;5096156;28;19907;-49
2023/05/10 03:20:24;;;;;;;;;;;20.10;92.10;;;;;;5096767;28;19951;-46
2023/05/10 03:22:53;;;;;;;;;;;20.10;92.10;;;;;;5096048;28;19908;-47
2023/05/10 03:25:20;;;;;;;;;;;20.10;92.10;;;;;;5096578;28;19911;-48
2023/05/10 03:27:46;;;;;;;;;;;20.10;92.10;;;;;;5095878;28;19912;-48
2023/05/10 03:30:12;;;;;;;;;;;20.10;92.10;;;;;;5096112;28;20014;-51
2023/05/10 03:32:38;;;;;;;;;;;20.10;92.10;;;;;;5093911;28;19957;-49
2023/05/10 03:35:11;;;;;;;;;;;20.10;92.10;;;;;;5095367;28;20385;-50
2023/05/10 03:37:36;;;;;;;;;;;20.10;92.10;;;;;;5095891;28;20007;-51
2023/05/10 03:40:02;;;;;;;;;;;20.10;92.10;;;;;;5074740;28;20388;-47
2023/05/10 03:42:28;;;;;;;;;;;20.10;92.10;;;;;;5075577;28;19924;-50
2023/05/10 03:44:53;;;;;;;;;;;20.10;92.10;;;;;;5075562;28;19920;-49
2023/05/10 03:47:19;;;;;;;;;;;20.10;92.10;;;;;;5100628;28;19919;-49
2023/05/10 03:49:45;;;;;;;;;;;20.10;92.10;;;;;;5115899;28;19912;-50
2023/05/10 03:52:10;;;;;;;;;;;20.10;91.80;;;;;;5115994;28;19908;-50
2023/05/10 03:54:36;;;;;;;;;;;20.10;91.30;;;;;;5115955;28;19908;-50
2023/05/10 03:57:02;;;;;;;;;;;20.10;91.60;;;;;;5115681;28;19955;-48
2023/05/10 03:59:28;;;;;;;;;;;20.10;91.80;;;;;;5116245;28;19953;-52
2023/05/10 04:01:53;;;;;;;;;;;20.10;91.80;;;;;;5115870;28;19915;-52
2023/05/10 04:04:20;;;;;;;;;;;20.10;91.90;;;;;;5097378;28;19907;-50
2023/05/10 04:06:46;;;;;;;;;;;20.10;92.00;;;;;;5115600;28;19912;-50
2023/05/10 04:09:11;;;;;;;;;;;20.10;92.00;;;;;;5115811;28;19930;-49
2023/05/10 04:11:37;;;;;;;;;;;20.10;92.00;;;;;;5115467;28;19907;-52
2023/05/10 04:14:02;;;;;;;;;;;20.10;92.00;;;;;;5115601;28;19912;-50
2023/05/10 04:16:28;;;;;;;;;;;20.10;92.00;;;;;;5115163;28;19953;-50
2023/05/10 04:18:53;;;;;;;;;;;20.10;92.10;;;;;;5115715;28;19961;-48
2023/05/10 04:21:19;;;;;;;;;;;20.10;92.00;;;;;;5115542;28;19914;-51
2023/05/10 04:23:44;;;;;;;;;;;20.10;92.00;;;;;;5115357;28;19954;-50
2023/05/10 04:26:10;;;;;;;;;;;20.10;92.10;;;;;;5115050;28;20312;-50
2023/05/10 04:28:35;;;;;;;;;;;20.10;92.10;;;;;;5115372;28;19912;-49
2023/05/10 04:31:04;;;;;;;;;;;20.10;92.00;;;;;;5115059;28;19908;-50
2023/05/10 04:33:30;;;;;;;;;;;20.10;92.10;;;;;;5115326;28;19908;-53
2023/05/10 04:35:56;;;;;;;;;;;20.10;92.10;;;;;;5096815;28;20412;-51
2023/05/10 04:38:21;;;;;;;;;;;20.10;92.10;;;;;;5115101;28;19938;-48
2023/05/10 04:40:46;;;;;;;;;;;20.00;92.10;;;;;;5115065;28;20358;-50
2023/05/10 04:43:12;;;;;;;;;;;20.10;92.10;;;;;;5115023;28;20282;-51
2023/05/10 04:45:37;;;;;;;;;;;20.10;92.10;;;;;;5114546;28;19908;-52
2023/05/10 04:48:03;;;;;;;;;;;20.00;92.10;;;;;;5114727;28;19912;-50
2023/05/10 04:50:28;;;;;;;;;;;20.10;92.10;;;;;;5114610;28;20358;-47
2023/05/10 04:52:54;;;;;;;;;;;20.10;92.10;;;;;;5114730;28;19908;-49
2023/05/10 04:55:19;;;;;;;;;;;20.10;92.10;;;;;;5114418;28;19915;-51
2023/05/10 04:57:45;;;;;;;;;;;20.10;92.10;;;;;;5114407;28;19957;-48
2023/05/10 05:00:12;;;;;;;;;;;20.10;92.10;;;;;;5114697;28;20339;-48
2023/05/10 05:02:37;;;;;;;;;;;20.00;92.10;;;;;;5114544;28;20259;-50
2023/05/10 05:05:03;;;;;;;;;;;20.10;92.10;;;;;;5114908;28;19915;-48
2023/05/10 05:07:30;;;;;;;;;;;20.10;92.10;;;;;;5114263;28;19966;-52
2023/05/10 05:09:55;;;;;;;;;;;20.10;92.10;;;;;;5112686;28;19911;-49
2023/05/10 05:12:21;;;;;;;;;;;20.10;92.10;;;;;;5096032;28;19912;-46
2023/05/10 05:14:46;;;;;;;;;;;20.10;92.10;;;;;;5096779;28;20354;-50
2023/05/10 05:17:12;;;;;;;;;;;20.10;92.10;;;;;;5100210;28;19916;-49
2023/05/10 05:19:37;;;;;;;;;;;20.10;92.10;;;;;;5101281;28;19917;-46
2023/05/10 05:22:03;;;;;;;;;;;20.10;92.10;;;;;;5097012;28;19916;-47
2023/05/10 05:24:28;;;;;;;;;;;20.00;92.10;;;;;;5106304;28;19912;-51
2023/05/10 05:26:54;;;;;;;;;;;20.10;92.10;;;;;;5106803;28;20292;-51
2023/05/10 05:29:19;;;;;;;;;;;20.10;92.00;;;;;;5110456;28;19916;-50
2023/05/10 05:31:45;;;;;;;;;;;20.10;91.70;;;;;;5103307;28;20329;-51
2023/05/10 05:34:10;;;;;;;;;;;20.10;91.50;;;;;;5114071;28;19907;-49
2023/05/10 05:36:38;;;;;;;;;;;20.10;91.50;;;;;;5111183;28;20426;-50
2023/05/10 05:39:03;;;;;;;;;;;20.10;91.70;;;;;;5112439;28;19937;-53
2023/05/10 05:41:29;;;;;;;;;;;20.10;91.80;;;;;;5113828;28;19907;-50
2023/05/10 05:43:54;;;;;;;;;;;20.10;91.90;;;;;;5109207;28;19927;-54
2023/05/10 05:46:20;;;;;;;;;;;20.10;91.90;;;;;;5113443;28;19977;-52
2023/05/10 05:48:45;;;;;;;;;;;20.10;92.00;;;;;;5098028;28;20015;-52
2023/05/10 05:51:11;;;;;;;;;;;20.00;92.00;;;;;;5093565;28;19908;-50
2023/05/10 05:53:36;;;;;;;;;;;20.10;92.00;;;;;;5075325;28;19958;-51
2023/05/10 05:56:02;;;;;;;;;;;20.10;92.00;;;;;;5093556;28;19912;-52
2023/05/10 05:58:27;;;;;;;;;;;20.10;92.00;;;;;;5093600;28;19909;-53
2023/05/10 06:00:53;;;;;;;;;;;20.10;92.00;;;;;;5075232;28;19915;-53
2023/05/10 06:03:19;;;;;;;;;;;20.10;92.00;;;;;;5095372;28;19909;-53
2023/05/10 06:05:44;;;;;;;;;;;20.10;92.00;;;;;;5096860;28;20252;-53
2023/05/10 06:08:10;;;;;;;;;;;20.10;92.00;;;;;;5097582;28;20359;-48
2023/05/10 06:10:35;;;;;;;;;;;20.10;92.00;;;;;;5096947;28;19908;-51
2023/05/10 06:13:01;;;;;;;;;;;20.00;91.90;;;;;;5097241;28;19916;-53
2023/05/10 06:15:27;;;;;;;;;;;20.10;92.00;;;;;;5096795;28;19955;-53
2023/05/10 06:17:52;;;;;;;;;;;20.10;91.90;;;;;;5097167;28;19908;-52
2023/05/10 06:20:18;;;;;;;;;;;20.10;91.90;;;;;;5078897;28;19912;-52
2023/05/10 06:22:43;;;;;;;;;;;20.10;91.90;;;;;;5096786;28;19916;-54
2023/05/10 06:25:09;;;;;;;;;;;20.10;91.90;;;;;;5096772;28;19908;-51
2023/05/10 06:27:35;;;;;;;;;;;20.10;91.90;;;;;;5078445;28;19912;-52
2023/05/10 06:30:00;;;;;;;;;;;20.10;91.90;;;;;;5096751;28;19912;-54
2023/05/10 06:32:26;;;;;;;;;;;20.00;91.90;;;;;;5096360;28;19923;-51
2023/05/10 06:34:52;;;;;;;;;;;20.00;91.90;;;;;;5096604;28;19912;-52
2023/05/10 06:37:17;;;;;;;;;;;20.10;91.90;;;;;;5096654;28;19908;-54
2023/05/10 06:39:43;;;;;;;;;;;20.10;91.90;;;;;;5096634;28;19908;-53
2023/05/10 06:42:08;;;;;;;;;;;20.10;91.90;;;;;;5097066;28;19920;-54
2023/05/10 06:44:34;;;;;;;;;;;20.00;91.90;;;;;;5096540;28;20252;-53
2023/05/10 06:47:00;;;;;;;;;;;20.00;91.80;;;;;;5096590;28;19916;-54
2023/05/10 06:49:25;;;;;;;;;;;20.00;91.80;;;;;;5078561;28;19912;-53
2023/05/10 06:51:51;;;;;;;;;;;20.00;91.80;;;;;;5097017;28;19908;-52
2023/05/10 06:54:17;;;;;;;;;;;20.00;91.80;;;;;;5096830;28;19908;-54
2023/05/10 06:56:43;;;;;;;;;;;20.00;91.80;;;;;;5096310;28;19931;-51
2023/05/10 06:59:08;;;;;;;;;;;20.00;91.80;;;;;;5096778;28;19976;-53
2023/05/10 07:01:34;;;;;;;;;;;20.00;91.80;;;;;;5078221;28;19915;-52
2023/05/10 07:03:59;;;;;;;;;;;20.00;91.80;;;;;;5096486;28;19923;-52
2023/05/10 07:06:24;;;;;;;;;;;20.00;91.80;;;;;;5096399;28;19912;-51
2023/05/10 07:08:50;;;;;;;;;;;20.00;91.80;;;;;;5096383;28;19912;-53
2023/05/10 07:11:15;;;;;;;;;;;20.00;91.80;;;;;;5096360;28;19908;-51
2023/05/10 07:13:43;;;;;;;;;;;20.00;91.80;;;;;;5095997;28;19931;-51
2023/05/10 07:16:09;;;;;;;;;;;20.00;91.80;;;;;;5095911;28;19914;-52
2023/05/10 07:18:35;;;;;;;;;;;20.00;91.80;;;;;;5095804;28;19908;-52
2023/05/10 07:21:00;;;;;;;;;;;20.00;91.80;;;;;;5096453;28;19908;-49
2023/05/10 07:23:26;;;;;;;;;;;20.00;91.80;;;;;;5095888;28;19912;-53
2023/05/10 07:25:52;;;;;;;;;;;20.00;91.80;;;;;;5095874;28;20258;-51
2023/05/10 07:28:17;;;;;;;;;;;20.00;91.80;;;;;;5095977;28;19965;-50
2023/05/10 07:30:43;;;;;;;;;;;20.00;91.80;;;;;;5095687;28;19908;-50
2023/05/10 07:33:09;;;;;;;;;;;20.00;91.80;;;;;;5095573;28;19909;-50
2023/05/10 07:35:35;;;;;;;;;;;20.00;91.80;;;;;;5095540;28;19908;-53
2023/05/10 07:38:00;;;;;;;;;;;20.00;91.80;;;;;;5095765;28;19931;-52
2023/05/10 07:40:26;;;;;;;;;;;20.00;91.80;;;;;;5095263;28;20351;-54
2023/05/10 07:42:51;;;;;;;;;;;20.10;91.80;;;;;;5095342;28;19924;-53
2023/05/10 07:45:17;;;;;;;;;;;20.00;91.70;;;;;;5076940;28;19958;-54
2023/05/10 07:47:43;;;;;;;;;;;20.10;91.70;;;;;;5095424;28;20004;-47
2023/05/10 07:50:08;;;;;;;;;;;20.10;91.70;;;;;;5095224;28;19911;-50
2023/05/10 07:52:34;;;;;;;;;;;20.10;91.70;;;;;;5077287;28;19908;-52
2023/05/10 07:54:59;;;;;;;;;;;20.00;91.70;;;;;;5095093;28;19953;-50
2023/05/10 07:57:25;;;;;;;;;;;20.10;91.70;;;;;;5095061;28;19908;-51
2023/05/10 07:59:50;;;;;;;;;;;20.10;91.70;;;;;;5095088;28;19962;-52
2023/05/10 08:02:16;;;;;;;;;;;20.10;91.70;;;;;;5095179;28;19956;-52
2023/05/10 08:04:41;;;;;;;;;;;20.10;91.70;;;;;;5094849;28;19919;-49
2023/05/10 08:07:07;;;;;;;;;;;20.10;91.70;;;;;;5095258;28;20351;-49
2023/05/10 08:09:32;;;;;;;;;;;20.10;91.70;;;;;;5095603;28;19916;-51
2023/05/10 08:11:59;;;;;;;;;;;20.10;91.70;;;;;;5095181;28;20334;-50
2023/05/10 08:14:25;;;;;;;;;;;20.10;91.70;;;;;;5094838;28;19961;-51
2023/05/10 08:16:51;;;;;;;;;;;20.10;91.70;;;;;;5095057;28;19908;-52
2023/05/10 08:19:19;;;;;;;;;;;20.10;91.70;;;;;;5094545;28;19943;-53
2023/05/10 08:21:45;;;;;;;;;;;20.10;91.70;;;;;;5076439;28;19908;-51
2023/05/10 08:24:10;;;;;;;;;;;20.10;91.70;;;;;;5094838;28;20007;-53
2023/05/10 08:26:36;;;;;;;;;;;20.10;91.70;;;;;;5093848;28;19939;-52
2023/05/10 08:29:01;;;;;;;;;;;20.10;91.70;;;;;;5076657;28;20273;-51
2023/05/10 08:31:27;;;;;;;;;;;20.00;91.60;;;;;;5094604;28;19908;-53
2023/05/10 08:33:52;;;;;;;;;;;20.00;91.60;;;;;;5094788;28;19915;-52
2023/05/10 08:36:21;;;;;;;;;;;20.10;91.70;;;;;;5094751;28;20243;-50
2023/05/10 08:38:50;;;;;;;;;;;20.10;91.70;;;;;;5094658;28;19909;-51
2023/05/10 08:41:16;;;;;;;;;;;20.10;91.70;;;;;;5094898;28;20378;-53
2023/05/10 08:43:45;;;;;;;;;;;20.10;91.90;;;;;;5094587;28;19967;-53
2023/05/10 08:46:14;;;;;;;;;;;20.00;91.60;;;;;;5094482;28;20357;-53
2023/05/10 08:48:40;;;;;;;;;;;20.00;91.60;;;;;;5094500;28;19912;-52
2023/05/10 08:51:08;;;;;;;;;;;20.10;91.70;;;;;;5094600;28;19915;-53
2023/05/10 08:53:36;;;;;;;;;;;20.00;91.60;;;;;;5094437;28;19915;-51
2023/05/10 08:56:02;;;;;;;;;;;20.00;91.60;;;;;;5094308;28;19912;-51
2023/05/10 08:58:27;;;;;;;;;;;20.00;91.60;;;;;;5094395;28;19908;-54
2023/05/10 09:00:53;;;;;;;;;;;20.00;91.60;;;;;;5094537;28;20251;-53
2023/05/10 09:03:18;;;;;;;;;;;20.00;91.90;;;;;;5076029;28;19908;-54
2023/05/10 09:05:44;;;;;;;;;;;20.00;91.60;;;;;;5094060;28;20002;-51
2023/05/10 09:08:10;;;;;;;;;;;20.00;91.60;;;;;;5093944;28;20003;-51
2023/05/10 09:10:36;;;;;;;;;;;20.00;91.60;;;;;;5093924;28;20003;-51
2023/05/10 09:13:02;;;;;;;;;;;20.00;91.60;;;;;;5075882;28;19912;-51
2023/05/10 09:15:28;;;;;;;;;;;20.00;91.60;;;;;;5075634;28;19915;-51
2023/05/10 09:17:54;;;;;;;;;;;20.00;91.60;;;;;;5093983;28;19934;-52
2023/05/10 09:20:20;;;;;;;;;;;20.00;91.60;;;;;;5093811;28;19908;-53
2023/05/10 09:22:45;;;;;;;;;;;20.10;91.60;;;;;;5094163;28;20012;-54
2023/05/10 09:25:12;;;;;;;;;;;20.00;91.60;;;;;;5075573;28;20358;-54
2023/05/10 09:27:38;;;;;;;;;;;20.00;91.60;;;;;;5093412;28;20064;-53
2023/05/10 09:30:05;;;;;;;;;;;20.10;91.60;;;;;;5093715;28;19912;-53
2023/05/10 09:32:37;;;;;;;;;;;20.00;91.60;;;;;;5093804;28;19914;-55
2023/05/10 09:35:10;;;;;;;;;;;20.00;91.60;;;;;;5094185;28;20002;-51
2023/05/10 09:37:35;;;;;;;;;;;20.00;91.60;;;;;;5095007;28;19915;-53
2023/05/10 09:40:04;;;;;;;;;;;20.00;91.60;;;;;;5097798;28;19908;-54
2023/05/10 09:42:29;;;;;;;;;;;20.00;91.60;;;;;;5097900;28;20322;-52
2023/05/10 09:45:00;;;;;;;;;;;20.10;91.60;;;;;;5097638;28;19922;-52
2023/05/10 09:47:26;;;;;;;;;;;20.10;91.60;;;;;;5097808;28;19916;-51
2023/05/10 09:49:52;;;;;;;;;;;20.10;91.60;;;;;;5097839;28;19912;-51
2023/05/10 09:52:18;;;;;;;;;;;20.10;91.60;;;;;;5097893;28;19908;-53
2023/05/10 09:54:53;;;;;;;;;;;20.00;91.60;;;;;;5097869;28;19908;-51
2023/05/10 09:57:22;;;;;;;;;;;20.00;91.60;;;;;;5097456;28;19951;-51
2023/05/10 09:59:49;;;;;;;;;;;20.10;91.60;;;;;;5097352;28;20420;-50
2023/05/10 10:02:14;;;;;;;;;;;20.00;91.60;;;;;;5097921;28;19911;-51
2023/05/10 10:04:40;;;;;;;;;;;20.10;91.60;;;;;;5097767;28;19915;-54
2023/05/10 10:07:06;;;;;;;;;;;20.10;91.60;;;;;;5097087;28;19992;-53
2023/05/10 10:09:32;;;;;;;;;;;20.10;91.60;;;;;;5097603;28;19950;-53
2023/05/10 10:11:57;;;;;;;;;;;20.00;91.50;;;;;;5097494;28;20351;-51
2023/05/10 10:14:26;;;;;;;;;;;20.10;91.60;;;;;;5097146;28;19912;-54
2023/05/10 10:16:52;;;;;;;;;;;20.10;91.60;;;;;;5097700;28;19919;-51
2023/05/10 10:19:20;;;;;;;;;;;20.10;91.60;;;;;;5097051;28;19916;-53
2023/05/10 10:21:46;;;;;;;;;;;20.10;91.60;;;;;;5097210;28;19909;-52
2023/05/10 10:24:12;;;;;;;;;;;20.10;91.50;;;;;;5096841;28;19998;-53
2023/05/10 10:26:38;;;;;;;;;;;20.10;91.50;;;;;;5096683;28;19913;-53
2023/05/10 10:29:12;;;;;;;;;;;20.10;91.50;;;;;;5097002;28;19912;-54
2023/05/10 10:31:54;;;;;;;;;;;20.10;91.50;;;;;;5096929;28;19908;-51
2023/05/10 10:34:29;;;;;;;;;;;20.10;91.50;;;;;;5096846;28;20423;-55
2023/05/10 10:36:56;;;;;;;;;;;20.10;91.50;;;;;;5096705;28;19935;-53
2023/05/10 10:39:22;;;;;;;;;;;20.10;91.50;;;;;;5096470;28;19943;-54
2023/05/10 10:41:54;;;;;;;;;;;20.10;91.50;;;;;;5096567;28;19954;-51
2023/05/10 10:47:09;;;;;;;;;;;20.10;91.50;;;;;;5096743;28;20363;-49
2023/05/10 10:49:41;;;;;;;;;;;20.10;91.50;;;;;;5085534;28;19938;-53
2023/05/10 10:52:21;;;;;;;;;;;20.10;91.50;;;;;;5096809;28;19977;-55
2023/05/10 10:54:50;;;;;;;;;;;20.10;91.50;;;;;;5096512;28;19950;-53
2023/05/10 10:57:17;;;;;;;;;;;20.10;91.50;;;;;;5096421;28;19908;-54
2023/05/10 10:59:43;;;;;;;;;;;20.10;91.50;;;;;;5096855;28;20014;-54
2023/05/10 11:02:09;;;;;;;;;;;20.10;91.50;;;;;;5096316;28;19915;-52
2023/05/10 11:04:46;;;;;;;;;;;20.10;91.50;;;;;;5096514;28;19908;-52
2023/05/10 11:07:18;;;;;;;;;;;20.10;91.50;;;;;;5096320;28;19912;-53
2023/05/10 11:09:44;;;;;;;;;;;20.10;91.50;;;;;;5096084;28;19912;-55
2023/05/10 11:12:10;;;;;;;;;;;20.10;91.50;;;;;;5096172;28;19908;-51
2023/05/10 11:14:35;;;;;;;;;;;20.10;91.50;;;;;;5096273;28;19914;-52
2023/05/10 11:17:01;;;;;;;;;;;20.10;91.50;;;;;;5095833;28;19996;-51
2023/05/10 11:19:27;;;;;;;;;;;20.10;91.50;;;;;;5095781;28;20010;-52
2023/05/10 11:22:05;;;;;;;;;;;20.10;91.50;;;;;;5095965;28;19907;-52
2023/05/10 11:24:30;;;;;;;;;;;20.10;91.50;;;;;;5095817;28;19908;-51
2023/05/10 11:26:56;;;;;;;;;;;20.10;91.50;;;;;;5095556;28;19919;-52
2023/05/10 11:29:22;;;;;;;;;;;20.10;91.50;;;;;;5095945;28;20359;-51
2023/05/10 11:31:48;;;;;;;;;;;20.10;91.50;;;;;;5096015;28;20309;-54
2023/05/10 11:34:27;;;;;;;;;;;20.00;91.50;;;;;;5096044;28;19914;-53
2023/05/10 11:36:53;;;;;;;;;;;20.00;91.50;;;;;;5095663;28;20277;-54
2023/05/10 11:39:19;;;;;;;;;;;20.00;91.50;;;;;;5095709;28;19908;-53
2023/05/10 11:41:47;;;;;;;;;;;20.00;91.50;;;;;;5095219;28;19908;-52
2023/05/10 11:44:12;;;;;;;;;;;20.00;91.50;;;;;;5095156;28;19912;-51
2023/05/10 11:46:37;;;;;;;;;;;20.00;91.50;;;;;;5095690;28;19916;-49
2023/05/10 11:49:06;;;;;;;;;;;20.00;91.50;;;;;;5095656;28;19921;-51
2023/05/10 11:51:39;;;;;;;;;;;20.00;91.50;;;;;;5095627;28;19912;-52
2023/05/10 11:54:09;;;;;;;;;;;20.00;91.50;;;;;;5095274;28;20385;-51
2023/05/10 11:56:34;;;;;;;;;;;20.00;91.50;;;;;;5095455;28;19953;-53
2023/05/10 11:59:02;;;;;;;;;;;20.00;91.50;;;;;;5095574;28;19908;-51
2023/05/10 12:01:28;;;;;;;;;;;20.00;91.50;;;;;;5094351;28;19908;-53
2023/05/10 12:03:54;;;;;;;;;;;20.00;91.50;;;;;;5095068;28;20382;-52
2023/05/10 12:06:20;;;;;;;;;;;20.00;91.50;;;;;;5094841;28;19916;-51
2023/05/10 12:08:46;;;;;;;;;;;20.00;91.50;;;;;;5094982;28;19935;-52
2023/05/10 12:11:12;;;;;;;;;;;20.00;91.50;;;;;;5095119;28;19959;-50
2023/05/10 12:13:42;;;;;;;;;;;20.00;91.50;;;;;;5095123;28;19908;-53
2023/05/10 12:16:17;;;;;;;;;;;20.00;91.50;;;;;;5094958;28;19961;-53
2023/05/10 12:18:43;;;;;;;;;;;20.00;91.50;;;;;;5094786;28;19912;-53
2023/05/10 12:21:11;;;;;;;;;;;20.00;91.50;;;;;;5094824;28;19915;-50
2023/05/10 12:23:37;;;;;;;;;;;20.00;91.50;;;;;;5094551;28;19973;-54
2023/05/10 12:26:04;;;;;;;;;;;20.00;91.50;;;;;;5094816;28;20027;-50
2023/05/10 12:28:30;;;;;;;;;;;20.00;91.50;;;;;;5094922;28;19912;-52
2023/05/10 12:30:57;;;;;;;;;;;20.00;91.50;;;;;;5094543;28;19912;-54
2023/05/10 12:33:22;;;;;;;;;;;20.00;91.50;;;;;;5094409;28;19919;-51
2023/05/10 12:35:49;;;;;;;;;;;20.00;91.40;;;;;;5094229;28;19908;-54
2023/05/10 12:38:28;;;;;;;;;;;20.00;91.40;;;;;;5094600;28;19912;-52
2023/05/10 12:40:54;;;;;;;;;;;20.00;91.40;;;;;;5094521;28;19912;-52
2023/05/10 12:43:19;;;;;;;;;;;20.00;91.40;;;;;;5094498;28;19920;-52
2023/05/10 12:45:47;;;;;;;;;;;20.00;91.40;;;;;;5094075;28;19951;-51
2023/05/10 12:48:13;;;;;;;;;;;20.00;91.40;;;;;;5094408;28;19991;-54
2023/05/10 12:50:40;;;;;;;;;;;20.00;91.40;;;;;;5093726;28;20307;-52
2023/05/10 12:53:06;;;;;;;;;;;20.00;91.40;;;;;;5094339;28;20399;-53
2023/05/10 12:55:31;;;;;;;;;;;20.00;91.40;;;;;;5093995;28;19915;-48
2023/05/10 12:57:57;;;;;;;;;;;20.00;91.40;;;;;;5094118;28;19908;-51
2023/05/10 13:00:22;;;;;;;;;;;20.00;91.40;;;;;;5094391;28;19908;-53
2023/05/10 13:02:48;;;;;;;;;;;20.00;91.40;;;;;;5094265;28;19908;-50
2023/05/10 13:05:13;;;;;;;;;;;20.00;91.40;;;;;;5094231;28;19915;-52
2023/05/10 13:07:38;;;;;;;;;;;20.00;91.40;;;;;;5094037;28;19938;-51
2023/05/10 13:10:05;;;;;;;;;;;20.00;91.40;;;;;;5093985;28;19962;-50
2023/05/10 13:12:30;;;;;;;;;;;20.00;91.40;;;;;;5094295;28;20331;-51
2023/05/10 13:14:56;;;;;;;;;;;20.00;91.40;;;;;;5094056;28;19916;-53
2023/05/10 13:17:21;;;;;;;;;;;20.00;91.40;;;;;;5075836;28;19919;-49
2023/05/10 13:19:47;;;;;;;;;;;20.00;91.40;;;;;;5093901;28;19909;-50
2023/05/10 13:22:12;;;;;;;;;;;20.00;91.40;;;;;;5093796;28;20025;-52
2023/05/10 13:24:38;;;;;;;;;;;20.00;91.40;;;;;;5093824;28;19943;-53
2023/05/10 13:27:03;;;;;;;;;;;20.00;91.40;;;;;;5093753;28;19912;-52
2023/05/10 13:29:29;;;;;;;;;;;20.00;91.40;;;;;;5075242;28;19920;-53
2023/05/10 13:31:54;;;;;;;;;;;20.00;91.40;;;;;;5093520;28;19912;-53
2023/05/10 13:34:20;;;;;;;;;;;20.00;91.40;;;;;;5093607;28;20359;-53
2023/05/10 13:36:46;;;;;;;;;;;20.00;91.40;;;;;;5093914;28;20228;-52
2023/05/10 13:39:11;;;;;;;;;;;20.00;91.40;;;;;;5093813;28;19915;-51
2023/05/10 13:41:37;;;;;;;;;;;20.00;91.40;;;;;;5093713;28;19958;-52
2023/05/10 13:44:03;;;;;;;;;;;20.00;91.40;;;;;;5093637;28;19920;-53
2023/05/10 13:46:29;;;;;;;;;;;20.00;91.40;;;;;;5093302;28;19916;-49
2023/05/10 13:48:55;;;;;;;;;;;20.00;91.40;;;;;;5093600;28;19954;-51
2023/05/10 13:51:20;;;;;;;;;;;20.00;91.40;;;;;;5093574;28;19908;-48
2023/05/10 13:53:46;;;;;;;;;;;20.00;91.40;;;;;;5093577;28;20354;-55
2023/05/10 13:56:12;;;;;;;;;;;20.00;91.40;;;;;;5093290;28;19912;-53
2023/05/10 13:58:38;;;;;;;;;;;20.00;91.40;;;;;;5093499;28;19914;-50
2023/05/10 14:01:04;;;;;;;;;;;20.00;91.40;;;;;;5093268;28;19954;-54
2023/05/10 14:03:30;;;;;;;;;;;20.00;91.40;;;;;;5093636;28;19999;-54
2023/05/10 14:05:56;;;;;;;;;;;20.00;91.40;;;;;;5093178;28;20015;-54
2023/05/10 14:08:22;;;;;;;;;;;20.00;91.40;;;;;;5093290;28;19912;-55
2023/05/10 14:10:48;;;;;;;;;;;20.00;91.40;;;;;;5093455;28;19916;-53
2023/05/10 14:13:14;;;;;;;;;;;20.00;91.40;;;;;;5093461;28;19916;-52
2023/05/10 14:15:40;;;;;;;;;;;20.00;91.40;;;;;;5093294;28;19915;-51